Airfield :







YOU CAN JOIN US ON...

 
LOGIN :

Register | Disclaimer

   EN    FR    IT 

 









Legend :    VFR   Marginal VFR   IFR   Intensive IFR   Very Intensive IFR
Visi :
Ceiling :
>= 8 km
>= 3000ft
5 to 8 km
1000 to 3000 ft
1500m to 5 km
500 to 1000 ft
800 to 1500m
200 to 500 ft
< 800m
< 200 ft
Symbols :   Thunderstorms  Fog  Heavy snow  Heavy precipitations  Wind > 20 kt






- Airport Elevation : 38 ft
- IATA code : TAB


TTCP - Crown Point Int.

CURRENT METAR :
  • 180700Z 16010KT 9999 FEW016 28/25 Q1010 NOSIG

EXPIRED METARs :
  • 180600Z 15010KT 9999 VCSH FEW016 28/25 Q1010 NOSIG RMK VCSH-N
  • 180500Z 15010KT 9999 VCSH FEW016 28/25 Q1011 NOSIG RMK VCSH-NE

TAF TAF TTCP
Valid from the 18 at 06:00 until the 19 at 06:00 UTC


180400Z 1806/1906 09005KT 9999 FEW016
BECMG 1812/1814 11010KT FEW018
TEMPO 1816/1822 6000 SHRA FEW012CB SCT016
BECMG 1900/1902 09005KT SCT016



MET'MAP, your aeronautical weather chart ! - Copyright ORBIFLY December 2007 - Disclaimer

ORBIFLY MET'MAP TEAM :

Programming & Development : Alexandra Zaïnal
Concept & Development : Baudouin d'Aumeries
Co-Development & Prog : Marc-Olivier Méhu
Technical & hardware support : Manuel Goepfert

Contact : metmap@orbifly.com




SOURCES & CREDITS :

   NOAA